地図

経路データ

SID SEASON NUMBER BASIN SUBBASIN NAME ISO_TIME NATURE LAT LON WMO_WIND WMO_PRES WMO_AGENCY TRACK_TYPE DIST2LAND LANDFALL IFLAG USA_AGENCY USA_ATCF_ID USA_LAT USA_LON USA_RECORD USA_STATUS USA_WIND USA_PRES USA_SSHS USA_R34_NE USA_R34_SE USA_R34_SW USA_R34_NW USA_R50_NE USA_R50_SE USA_R50_SW USA_R50_NW USA_R64_NE USA_R64_SE USA_R64_SW USA_R64_NW USA_POCI USA_ROCI USA_RMW USA_EYE TOKYO_LAT TOKYO_LON TOKYO_GRADE TOKYO_WIND TOKYO_PRES TOKYO_R50_DIR TOKYO_R50_LONG TOKYO_R50_SHORT TOKYO_R30_DIR TOKYO_R30_LONG TOKYO_R30_SHORT TOKYO_LAND CMA_LAT CMA_LON CMA_CAT CMA_WIND CMA_PRES HKO_LAT HKO_LON HKO_CAT HKO_WIND HKO_PRES NEWDELHI_LAT NEWDELHI_LON NEWDELHI_GRADE NEWDELHI_WIND NEWDELHI_PRES NEWDELHI_CI NEWDELHI_DP NEWDELHI_POCI REUNION_LAT REUNION_LON REUNION_TYPE REUNION_WIND REUNION_PRES REUNION_TNUM REUNION_CI REUNION_RMW REUNION_R34_NE REUNION_R34_SE REUNION_R34_SW REUNION_R34_NW REUNION_R50_NE REUNION_R50_SE REUNION_R50_SW REUNION_R50_NW REUNION_R64_NE REUNION_R64_SE REUNION_R64_SW REUNION_R64_NW BOM_LAT BOM_LON BOM_TYPE BOM_WIND BOM_PRES BOM_TNUM BOM_CI BOM_RMW BOM_R34_NE BOM_R34_SE BOM_R34_SW BOM_R34_NW BOM_R50_NE BOM_R50_SE BOM_R50_SW BOM_R50_NW BOM_R64_NE BOM_R64_SE BOM_R64_SW BOM_R64_NW BOM_ROCI BOM_POCI BOM_EYE BOM_POS_METHOD BOM_PRES_METHOD NADI_LAT NADI_LON NADI_CAT NADI_WIND NADI_PRES WELLINGTON_LAT WELLINGTON_LON WELLINGTON_WIND WELLINGTON_PRES DS824_LAT DS824_LON DS824_STAGE DS824_WIND DS824_PRES TD9636_LAT TD9636_LON TD9636_STAGE TD9636_WIND TD9636_PRES TD9635_LAT TD9635_LON TD9635_WIND TD9635_PRES TD9635_ROCI NEUMANN_LAT NEUMANN_LON NEUMANN_CLASS NEUMANN_WIND NEUMANN_PRES MLC_LAT MLC_LON MLC_CLASS MLC_WIND MLC_PRES USA_GUST BOM_GUST BOM_GUST_PER REUNION_GUST REUNION_GUST_PER USA_SEAHGT USA_SEARAD_NE USA_SEARAD_SE USA_SEARAD_SW USA_SEARAD_NW STORM_SPEED STORM_DIR
1987096S11144 1987 26 SP EA KAY 1987-04-06 00:00:00 TS -11.1000 143.700 main 93 93 O_________O_O_ jtwc_sh SH231987 -11.1000 143.700 25 -1 -11.1000 143.700 1 25 -11.1000 143.700 TC 25 4 350
1987096S11144 1987 26 SP EA KAY 1987-04-06 03:00:00 TS -10.9010 143.651 main 100 90 P_________P_P_ SH231987 -10.9000 143.680 25 -1 -10.9032 143.594 1 25 -10.9000 143.680 TC 25 4 341
1987096S11144 1987 26 SP EA KAY 1987-04-06 06:00:00 TS -10.7017 143.560 main 98 86 O_________P_O_ jtwc_sh SH231987 -10.7000 143.600 25 -1 -10.7050 143.480 1 25 -10.7000 143.600 TC 25 5 328
1987096S11144 1987 26 SP EA KAY 1987-04-06 09:00:00 TS -10.5015 143.399 main 93 93 P_________P_P_ SH231987 -10.5000 143.422 25 -1 -10.5044 143.351 1 25 -10.5000 143.422 TC 25 5 319
1987096S11144 1987 26 SP EA KAY 1987-04-06 12:00:00 TS -10.3000 143.200 main 94 93 O_________O_O_ jtwc_sh SH231987 -10.3000 143.200 25 -1 -10.3000 143.200 1 25 -10.3000 143.200 TC 25 6 317
1987096S11144 1987 26 SP EA KAY 1987-04-06 15:00:00 TS -10.0973 143.012 main 95 70 P_________P_P_ SH231987 -10.1000 143.008 25 -1 -10.0918 143.020 1 25 -10.1000 143.008 TC 25 6 316
1987096S11144 1987 26 SP EA KAY 1987-04-06 18:00:00 TS -9.89497 142.803 main 70 44 O_________P_O_ jtwc_sh SH231987 -9.90000 142.800 25 -1 -9.88490 142.810 1 25 -9.90000 142.800 TC 25 6 313
1987096S11144 1987 26 SP EA KAY 1987-04-06 21:00:00 TS -9.69015 142.572 main 44 31 P_________P_P_ SH231987 -9.69246 142.573 25 -1 -9.68553 142.570 1 25 -9.69246 142.573 TC 25 6 309
1987096S11144 1987 26 SP EA KAY 1987-04-07 00:00:00 TS -9.50000 142.300 main 35 11 O_________O_O_ jtwc_sh SH231987 -9.50000 142.300 25 -1 -9.50000 142.300 1 25 -9.50000 142.300 TC 25 7 301
1987096S11144 1987 26 SP EA KAY 1987-04-07 03:00:00 TS -9.33616 141.974 main 11 0 P_________P_P_ SH231987 -9.34253 141.958 27 -1 -9.32344 142.008 1 26 -9.34253 141.958 TC 27 7 295
1987096S11144 1987 26 SP EA KAY 1987-04-07 06:00:00 TS -9.18750 141.629 main 0 0 O_________P_O_ jtwc_sh SH231987 -9.20000 141.600 30 -1 -9.16249 141.687 1 27 -9.20000 141.600 TC 30 7 295
1987096S11144 1987 26 SP EA KAY 1987-04-07 09:00:00 TS -9.03504 141.321 main 0 0 P_________P_P_ SH231987 -9.04242 141.308 30 -1 -9.02029 141.348 1 28 -9.04242 141.308 TC 30 7 295
1987096S11144 1987 26 SP EA KAY 1987-04-07 12:00:00 TS -8.90000 141.000 main 0 0 O_________O_O_ jtwc_sh SH231987 -8.90000 141.000 30 -1 -8.90000 141.000 1 30 -8.90000 141.000 TC 30 7 290
1987096S11144 1987 26 SP EA KAY 1987-04-07 15:00:00 TS -8.78707 140.622 main 0 0 P_________P_P_ SH231987 -8.78504 140.600 30 -1 -8.79113 140.665 1 31 -8.78504 140.600 TC 30 8 285
1987096S11144 1987 26 SP EA KAY 1987-04-07 18:00:00 TS -8.70161 140.241 main 31 31 O_________P_O_ jtwc_sh SH231987 -8.70000 140.200 30 -1 -8.70483 140.323 1 32 -8.70000 140.200 TC 30 7 282
1987096S11144 1987 26 SP EA KAY 1987-04-07 21:00:00 TS -8.64201 139.908 main 46 46 P_________P_P_ SH231987 -8.64245 139.878 32 -1 -8.64111 139.968 1 33 -8.64245 139.878 TC 32 6 280
1987096S11144 1987 26 SP EA KAY 1987-04-08 00:00:00 TS -8.59231 139.638 25 1003 bom main 49 44 O_____O___O_O_ jtwc_sh SH231987 -8.60000 139.600 35 0 -8.50000 140.100 20 25 1003 2.00000 -8.60000 139.600 2 35 -8.60000 139.600 TC 35 45 45 5 279
1987096S11144 1987 26 SP EA KAY 1987-04-08 03:00:00 TS -8.55952 139.401 main 44 35 P_____P___P_P_ SH231987 -8.53485 139.387 35 0 -8.67740 139.820 20 27 1001 -8.54992 139.218 2 35 -8.53485 139.387 TC 35 5 273
1987096S11144 1987 26 SP EA KAY 1987-04-08 06:00:00 TS -8.56663 139.086 30 999 bom main 35 24 O_____O___P_O_ jtwc_sh SH231987 -8.50000 139.100 35 0 -8.80000 139.400 20 30 999 2.50000 -8.52488 138.822 2 35 -8.50000 139.100 TC 35 45 45 8 267
1987096S11144 1987 26 SP EA KAY 1987-04-08 09:00:00 TS -8.60132 138.582 main 24 22 P_____P___P_P_ SH231987 -8.51264 138.580 35 0 -8.84261 138.752 20 32 996 -8.53740 138.415 2 35 -8.51264 138.580 TC 35 11 264
1987096S11144 1987 26 SP EA KAY 1987-04-08 12:00:00 TS -8.67500 138.000 35 993 bom main 33 33 O_____O___O_O_ jtwc_sh SH231987 -8.60000 138.000 35 0 -8.90000 138.000 30 35 993 3.00000 -8.60000 138.000 2 35 -8.60000 138.000 TC 35 49 49 11 258
1987096S11144 1987 26 SP EA KAY 1987-04-08 15:00:00 TS -8.83809 137.468 main 46 46 P_____P___P_P_ SH231987 -8.78491 137.528 35 0 -9.07019 137.225 30 37 993 -8.71234 137.590 2 36 -8.78491 137.528 TC 35 11 250
1987096S11144 1987 26 SP EA KAY 1987-04-08 18:00:00 TS -9.04369 136.993 40 993 bom main 94 94 O_____O___P_O_ jtwc_sh SH231987 -9.00000 137.100 35 0 -9.30000 136.600 30 40 993 3.00000 -8.87476 137.172 2 37 -9.00000 137.100 TC 35 55 55 9 245
1987096S11144 1987 26 SP EA KAY 1987-04-08 21:00:00 TS -9.22922 136.617 main 141 141 P_____P___P_P_ SH231987 -9.14243 136.692 37 0 -9.55722 136.340 30 40 993 -9.07481 136.743 2 38 -9.14243 136.692 TC 37 8 242
1987096S11144 1987 26 SP EA KAY 1987-04-09 00:00:00 TS -9.42500 136.275 40 993 bom main 181 181 O_____O___O_O_ jtwc_sh SH231987 -9.30000 136.300 40 0 -9.80000 136.200 21 40 993 3.00000 -9.30000 136.300 2 40 -9.30000 136.300 TC 40 55 55 8 239
1987096S11144 1987 26 SP EA KAY 1987-04-09 03:00:00 TS -9.64466 135.906 main 230 230 P_____P___P_P_ SH231987 -9.53487 135.922 40 0 -9.97241 135.945 21 40 991 -9.53650 135.835 2 41 -9.53487 135.922 TC 37 9 240
1987096S11144 1987 26 SP EA KAY 1987-04-09 06:00:00 TS -9.87311 135.489 40 990 bom main 246 225 O_____O___P_O_ jtwc_sh SH231987 -9.80000 135.500 40 0 -10.1000 135.600 30 40 990 3.00000 -9.79242 135.358 2 42 -9.80000 135.500 TC 35 996 55 55 10 244
1987096S11144 1987 26 SI WA KAY 1987-04-09 09:00:00 TS -10.0862 134.978 main 225 184 P_____P___P_P_ SH231987 -10.0500 134.965 42 0 -10.1926 135.107 30 42 988 -10.0521 134.876 2 43 -10.0500 134.965 TC 40 11 247
1987096S11144 1987 26 SI WA KAY 1987-04-09 12:00:00 TS -10.3000 134.450 45 987 bom main 184 147 O_____O___O_O_ jtwc_sh SH231987 -10.3000 134.400 45 0 -10.3000 134.600 30 45 987 3.00000 -10.3000 134.400 2 45 -10.3000 134.400 TC 45 64 64 11 245
1987096S11144 1987 26 SI WA KAY 1987-04-09 15:00:00 TS -10.5375 133.980 main 147 101 P_____P___P_P_ SH231987 -10.5649 133.878 45 0 -10.4774 134.227 30 45 987 -10.5426 133.939 2 45 -10.5649 133.878 TC 47 10 242
1987096S11144 1987 26 SI WA KAY 1987-04-09 18:00:00 TS -10.7668 133.546 45 987 bom main 93 55 O_____O___P_O_ jtwc_sh SH231987 -10.8000 133.400 45 0 -10.7000 133.900 30 45 987 3.00000 -10.7672 133.485 2 45 -10.8000 133.400 TC 50 64 64 9 240
1987096S11144 1987 26 SI WA KAY 1987-04-09 21:00:00 TS -10.9661 133.219 main 55 33 P_____P___P_P_ SH231987 -10.9874 132.985 45 0 -10.9312 133.866 30 45 987 -10.9582 133.039 2 45 -10.9874 132.985 TC 52 9 245
1987096S11144 1987 26 SI WA KAY 1987-04-10 00:00:00 TS -11.1250 132.750 45 987 bom main 35 0 O_____O___O_O_ jtwc_sh SH231987 -11.1000 132.600 45 0 -11.2000 133.200 30 45 987 3.00000 -11.1000 132.600 2 45 -11.1000 132.600 TC 55 64 64 12 258
1987096S11144 1987 26 SI WA KAY 1987-04-10 03:00:00 TS -11.2221 131.978 45 987 bom main 0 0 P_____O___P_P_ SH231987 -11.1149 132.207 45 0 -11.5000 131.300 30 45 987 3.00000 -11.1585 132.196 2 45 -11.1149 132.207 TC 55 64 64 12 260
1987096S11144 1987 26 SI WA KAY 1987-04-10 06:00:00 TS -11.3429 131.524 45 987 bom main 15 0 O_____O___P_O_ jtwc_sh SH231987 -11.1000 131.800 45 0 -12.0000 130.700 30 45 987 3.00000 -11.1717 131.794 2 45 -11.1000 131.800 TC 55 64 64 8 260
1987096S11144 1987 26 SI WA KAY 1987-04-10 09:00:00 TS -11.3683 131.149 main 0 0 P_____P___P_P_ SH231987 -11.1349 131.380 45 0 -12.0293 130.464 30 45 987 -11.1740 131.371 2 45 -11.1349 131.380 TC 55 7 269
1987096S11144 1987 26 SI WA KAY 1987-04-10 12:00:00 TS -11.3500 130.775 45 988 bom main 11 0 O_____O___O_O_ jtwc_sh SH231987 -11.2000 130.900 45 0 -11.8000 130.400 30 45 988 3.00000 -11.2000 130.900 2 45 -11.2000 130.900 TC 55 64 64 8 269
1987096S11144 1987 26 SI WA KAY 1987-04-10 15:00:00 TS -11.3789 130.311 main 0 0 P_____P___P_P_ SH231987 -11.2850 130.322 45 0 -11.6574 130.253 30 42 989 -11.2883 130.346 2 45 -11.2850 130.322 TC 55 10 265
1987096S11144 1987 26 SI WA KAY 1987-04-10 18:00:00 TS -11.4263 129.786 40 990 bom main 34 34 O_____O___P_O_ jtwc_sh SH231987 -11.4000 129.700 45 0 -11.5000 130.000 30 40 990 3.00000 -11.4052 129.745 2 45 -11.4000 129.700 TC 55 55 55 11 265
1987096S11144 1987 26 SI WA KAY 1987-04-10 21:00:00 TS -11.4723 129.216 main 98 98 P_____P___P_P_ SH231987 -11.5349 129.100 45 0 -11.2751 129.545 30 40 990 -11.5445 129.121 2 45 -11.5349 129.100 TC 55 11 263
1987096S11144 1987 26 SI WA KAY 1987-04-11 00:00:00 TS -11.5750 128.625 40 991 bom main 163 163 O_____O___O_O_ jtwc_sh SH231987 -11.7000 128.500 45 0 -11.2000 129.000 30 40 991 3.00000 -11.7000 128.500 2 45 -11.7000 128.500 TC 55 55 55 12 255
1987096S11144 1987 26 SI WA KAY 1987-04-11 03:00:00 TS -11.7882 128.048 main 228 206 P_____P___P_P_ SH231987 -11.8999 127.893 45 0 -11.5049 128.500 30 40 992 -11.8482 127.905 2 45 -11.8999 127.893 TC 55 12 248
1987096S11144 1987 26 SI WA KAY 1987-04-11 06:00:00 TS -12.0281 127.480 40 993 bom main 206 179 O_____O___P_O_ jtwc_sh SH231987 -12.1000 127.300 45 0 -11.9000 128.000 30 40 993 3.00000 -12.0122 127.320 2 45 -12.1000 127.300 TC 55 55 55 12 250
1987096S11144 1987 26 SI WA KAY 1987-04-11 09:00:00 TS -12.1918 126.939 main 179 169 P_____P___P_P_ SH231987 -12.2423 126.742 45 0 -12.0873 127.522 30 40 992 -12.1951 126.749 2 45 -12.2423 126.742 TC 55 11 253
1987096S11144 1987 26 SI WA KAY 1987-04-11 12:00:00 TS -12.3500 126.400 40 991 bom main 176 165 O_____O___O_O_ jtwc_sh SH231987 -12.4000 126.200 45 0 -12.2000 127.000 30 40 991 3.00000 -12.4000 126.200 2 45 -12.4000 126.200 TC 55 55 55 12 252
1987096S11144 1987 26 SI WA KAY 1987-04-11 15:00:00 TS -12.5462 125.815 main 171 159 P_____P___P_P_ SH231987 -12.6350 125.635 45 0 -12.2702 126.335 30 40 991 -12.6445 125.654 2 46 -12.6350 125.635 TC 55 12 249
1987096S11144 1987 26 SI WA KAY 1987-04-11 18:00:00 TS -12.7768 125.258 40 992 bom main 159 159 O_____O___P_O_ jtwc_sh SH231987 -12.9000 125.100 45 0 -12.4000 125.700 30 40 992 3.00000 3 -12.9073 125.133 2 47 -12.9000 125.100 TC 55 55 55 11 243
1987096S11144 1987 26 SI WA KAY 1987-04-11 21:00:00 TS -13.0577 124.789 main 159 159 P_____P___P_P_ SH231987 -13.1649 124.620 47 0 -12.7347 125.270 30 42 990 -13.1665 124.645 2 48 -13.1649 124.620 TC 55 10 238
1987096S11144 1987 26 SI WA KAY 1987-04-12 00:00:00 TS -13.3250 124.375 45 988 bom main 169 165 O_____O___O_O_ jtwc_sh SH231987 -13.4000 124.200 50 0 -13.1000 124.900 30 45 988 3.00000 139 1012 3 -13.4000 124.200 2 50 -13.4000 124.200 TC 55 64 64 9 240
1987096S11144 1987 26 SI WA KAY 1987-04-12 03:00:00 TS -13.5128 123.990 main 178 178 P_____P___P_P_ SH231987 -13.5649 123.835 50 0 -13.3448 124.480 30 47 986 150 -13.5768 123.809 2 51 -13.5649 123.835 TC 57 8 246
1987096S11144 1987 26 SI WA KAY 1987-04-12 06:00:00 TS -13.6567 123.615 50 984 bom main 199 199 O_____O___P_O_ jtwc_sh SH231987 -13.7000 123.500 50 0 -13.5000 124.000 30 50 984 3.50000 161 3 -13.7267 123.459 2 52 -13.7000 123.500 TC 60 69 69 8 250
1987096S11144 1987 26 SI WA KAY 1987-04-12 09:00:00 TS -13.7839 123.209 main 232 232 P_____P___P_P_ SH231987 -13.8500 123.150 52 0 -13.5726 123.407 30 50 982 126 -13.8633 123.129 2 53 -13.8500 123.150 TC 62 8 253
1987096S11144 1987 26 SI WA KAY 1987-04-12 12:00:00 TS -13.9000 122.800 50 980 bom main 256 256 O_____O___O_O_ jtwc_sh SH231987 -14.0000 122.800 55 0 -13.6000 122.800 30 50 980 3.50000 91 3 -14.0000 122.800 2 55 -14.0000 122.800 TC 65 69 69 8 254
1987096S11144 1987 26 SI WA KAY 1987-04-12 15:00:00 TS -14.0062 122.401 main 279 276 P_____P___P_P_ SH231987 -14.1499 122.450 60 0 -13.5750 122.255 30 55 978 115 -14.1499 122.450 2 60 -14.1499 122.450 TC 67 8 252
1987096S11144 1987 26 SI WA KAY 1987-04-12 18:00:00 TS -14.1500 122.025 60 976 bom main 285 267 O_____O___O_O_ jtwc_sh SH231987 -14.3000 122.100 65 1 -13.7000 121.800 30 60 976 4.00000 139 3 -14.3000 122.100 3 65 -14.3000 122.100 TC 70 84 84 8 240
1987096S11144 1987 26 SI WA KAY 1987-04-12 21:00:00 TS -14.4074 121.673 main 267 260 P_____P___P_P_ SH231987 -14.4500 121.728 65 1 -14.2722 121.500 30 57 976 131 -14.4574 121.735 3 65 -14.4500 121.728 TC 72 8 233
1987096S11144 1987 26 SI WA KAY 1987-04-13 00:00:00 TS -14.6500 121.350 55 976 bom main 266 264 O_____O___O_O_ jtwc_sh SH231987 -14.6000 121.400 65 1 -14.8000 121.200 30 55 976 4.00000 124 1012 3 -14.6000 121.400 4 65 -14.6000 121.400 TC 75 75 75 7 239
1987096S11144 1987 26 SI WA KAY 1987-04-13 03:00:00 TS -14.7651 121.053 main 270 270 P_____P___P_P_ SH231987 -14.7724 121.177 65 1 -14.7977 120.699 30 55 976 140 -14.7177 121.158 4 62 -14.7724 121.177 TC 70 6 254
1987096S11144 1987 26 SI WA KAY 1987-04-13 06:00:00 TS -14.8019 120.793 55 976 bom main 294 294 O_____O___P_O_ jtwc_sh SH231987 -14.9000 121.000 65 1 -14.6000 120.200 30 55 976 4.00000 157 3 -14.8074 120.973 4 60 -14.9000 121.000 TC 65 75 75 5 265
1987096S11144 1987 26 SI WA KAY 1987-04-13 09:00:00 TS -14.8014 120.577 main 309 309 P_____P___P_P_ SH231987 -14.9224 120.815 60 0 -14.4923 119.878 30 55 976 154 -14.8685 120.801 4 57 -14.9224 120.815 TC 60 4 274
1987096S11144 1987 26 SI WA KAY 1987-04-13 12:00:00 TS -14.7750 120.350 55 976 bom main 325 325 O_____O___O_O_ jtwc_sh SH231987 -14.9000 120.600 55 0 -14.4000 119.600 30 55 976 4.00000 151 3 -14.9000 120.600 2 55 -14.9000 120.600 TC 55 75 75 5 274
1987096S11144 1987 26 SI WA KAY 1987-04-13 15:00:00 TS -14.7643 120.054 main 348 348 P_____P___P_P_ SH231987 -14.9075 120.323 55 0 -14.3425 119.258 30 55 976 199 -14.8997 120.315 2 55 -14.9075 120.323 TC 55 6 273
1987096S11144 1987 26 SI WA KAY 1987-04-13 18:00:00 TS -14.7431 119.724 55 976 bom main 386 386 O_____O___P_O_ jtwc_sh SH231987 -14.9000 120.000 55 0 -14.3000 118.900 30 55 976 4.00000 247 3 -14.8725 119.995 2 55 -14.9000 120.000 TC 55 75 75 7 277
1987096S11144 1987 26 SI WA KAY 1987-04-13 21:00:00 TS -14.6885 119.377 main 410 410 P_____P___P_P_ SH231987 -14.8500 119.657 55 0 -14.2200 118.542 30 52 979 239 -14.8340 119.652 2 55 -14.8500 119.657 TC 55 7 278
1987096S11144 1987 26 SI WA KAY 1987-04-14 00:00:00 TS -14.6500 119.025 50 982 bom main 450 443 O_____O___O_O_ jtwc_sh SH231987 -14.8000 119.300 55 0 -14.2000 118.200 30 50 982 3.50000 232 1012 3 -14.8000 119.300 2 55 -14.8000 119.300 TC 55 69 69 7 272
1987096S11144 1987 26 SI WA KAY 1987-04-14 03:00:00 TS -14.6675 118.697 main 469 469 P_____P___P_P_ SH231987 -14.7924 118.950 55 0 -14.3049 117.907 30 50 985 221 -14.7802 118.981 2 55 -14.7924 118.950 TC 55 6 264
1987096S11144 1987 26 SI WA KAY 1987-04-14 06:00:00 TS -14.7173 118.363 50 988 bom main 496 496 O_____O___P_O_ jtwc_sh SH231987 -14.8000 118.600 55 0 -14.5000 117.600 30 50 988 3.50000 211 3 -14.7694 118.652 2 55 -14.8000 118.600 TC 55 69 69 7 260
1987096S11144 1987 26 SI WA KAY 1987-04-14 09:00:00 TS -14.7847 118.009 main 526 526 P_____P___P_P_ SH231987 -14.7924 118.257 55 0 -14.7800 117.223 30 45 990 208 -14.7739 118.297 2 55 -14.7924 118.257 TC 55 7 259
1987096S11144 1987 26 SI WA KAY 1987-04-14 12:00:00 TS -14.8500 117.625 40 992 bom main 564 559 O_____O___O_O_ jtwc_sh SH231987 -14.8000 117.900 55 0 -15.0000 116.800 30 40 992 3.00000 205 3 -14.8000 117.900 2 55 -14.8000 117.900 TC 55 55 55 8 263
1987096S11144 1987 26 SI WA KAY 1987-04-14 15:00:00 TS -14.8792 117.222 main 598 598 P_____P___P_P_ SH231987 -14.8348 117.537 52 0 -15.0100 116.357 30 37 993 226 -14.8371 117.455 2 52 -14.8348 117.537 TC 52 8 267
1987096S11144 1987 26 SI WA KAY 1987-04-14 18:00:00 TS -14.8993 116.767 35 994 bom main 630 630 O_____O___P_O_ jtwc_sh SH231987 -14.9000 117.100 50 0 -14.9000 115.900 30 35 994 3.00000 247 3 -14.8973 116.967 2 50 -14.9000 117.100 TC 50 49 49 9 268
1987096S11144 1987 26 SI WA KAY 1987-04-14 21:00:00 TS -14.9203 116.243 main 639 633 P_____P___P_P_ SH231987 -14.9776 116.530 47 0 -14.7423 115.465 30 35 994 239 -14.9838 116.446 2 47 -14.9776 116.530 TC 47 11 266
1987096S11144 1987 26 SI WA KAY 1987-04-15 00:00:00 TS -14.9750 115.675 35 994 bom main 635 632 O_____O___O_O_ jtwc_sh SH231987 -15.1000 115.900 45 0 -14.6000 115.000 30 35 994 3.00000 232 1014 3 -15.1000 115.900 2 45 -15.1000 115.900 TC 45 49 49 11 261
1987096S11144 1987 26 SI WA KAY 1987-04-15 03:00:00 TS -15.0936 115.098 main 638 633 P_____P___P_P_ SH231987 -15.2924 115.293 45 0 -14.5474 114.472 30 35 994 229 -15.2422 115.335 2 45 -15.2924 115.293 TC 45 12 256
1987096S11144 1987 26 SI WA KAY 1987-04-15 06:00:00 TS -15.2531 114.513 35 994 bom main 637 637 O_____O___P_O_ jtwc_sh SH231987 -15.5000 114.700 45 0 -14.6000 113.900 30 35 994 3.00000 226 3 -15.4126 114.750 2 45 -15.5000 114.700 TC 45 49 49 12 254
1987096S11144 1987 26 SI WA KAY 1987-04-15 09:00:00 TS -15.4197 113.932 main 652 647 P_____P___P_P_ SH231987 -15.6649 114.127 45 0 -14.7474 113.307 30 35 994 207 -15.6016 114.166 2 45 -15.6649 114.127 TC 45 12 252
1987096S11144 1987 26 SI WA KAY 1987-04-15 12:00:00 TS -15.6000 113.375 35 994 bom main 659 659 O_____O___O_O_ jtwc_sh SH231987 -15.8000 113.600 45 0 -15.0000 112.700 30 35 994 3.00000 188 3 -15.8000 113.600 2 45 -15.8000 113.600 TC 45 49 49 11 252
1987096S11144 1987 26 SI WA KAY 1987-04-15 15:00:00 TS -15.7510 112.857 main 668 668 P_____P___P_P_ SH231987 -15.8772 113.150 42 0 -15.2976 112.062 30 35 994 228 -15.9518 113.065 2 42 -15.8772 113.150 TC 42 10 250
1987096S11144 1987 26 SI WA KAY 1987-04-15 18:00:00 TS -15.9543 112.363 35 994 bom main 679 671 O_____O___P_O_ jtwc_sh SH231987 -16.0000 112.700 40 0 -15.7000 111.500 30 35 994 3.00000 269 3 -16.1170 112.554 2 40 -16.0000 112.700 TC 40 49 49 11 242
1987096S11144 1987 26 SI WA KAY 1987-04-15 21:00:00 TS -16.2634 111.868 main 664 648 P_____P___P_P_ SH231987 -16.2475 112.157 37 0 -16.2348 111.090 30 35 994 234 -16.3238 112.065 2 37 -16.2475 112.157 TC 37 12 233
1987096S11144 1987 26 SI WA KAY 1987-04-16 00:00:00 TS -16.6500 111.400 35 994 bom main 652 622 O_____O___O_O_ jtwc_sh SH231987 -16.6000 111.600 35 0 -16.8000 110.800 30 35 994 3.00000 199 3 -16.6000 111.600 2 35 -16.6000 111.600 TC 35 49 49 12 226
1987096S11144 1987 26 SI WA KAY 1987-04-16 03:00:00 TS -17.0830 110.974 main 622 607 P_____P___P_P_ SH231987 -17.0275 111.070 35 0 -17.2873 110.600 30 32 994 161 -16.9898 111.158 2 35 -17.0275 111.070 TC 35 12 221
1987096S11144 1987 26 SI WA KAY 1987-04-16 06:00:00 TS -17.5367 110.584 30 995 bom main 607 591 O_____O___P_O_ jtwc_sh SH231987 -17.5000 110.600 35 0 -17.7000 110.400 20 30 995 2.50000 124 3 -17.4468 110.735 2 35 -17.5000 110.600 TC 35 45 45 11 219
1987096S11144 1987 26 SI WA KAY 1987-04-16 09:00:00 TS -17.9687 110.215 main 589 579 P_____P___P_P_ SH231987 -17.9573 110.227 35 0 -18.0299 110.087 20 30 996 110 -17.9304 110.320 2 35 -17.9573 110.227 TC 35 11 220
1987096S11144 1987 26 SI WA KAY 1987-04-16 12:00:00 TS -18.3750 109.850 30 997 bom main 579 579 O_____O___O_O_ jtwc_sh SH231987 -18.4000 109.900 35 0 -18.3000 109.700 20 30 997 2.50000 97 3 -18.4000 109.900 2 35 -18.4000 109.900 TC 35 45 45 11 221
1987096S11144 1987 26 SI WA KAY 1987-04-16 15:00:00 TS -18.7582 109.480 main 583 583 P_____P___P_P_ SH231987 -18.8147 109.580 35 0 -18.5797 109.295 20 27 998 107 -18.8238 109.466 2 33 -18.8147 109.580 TC 35 11 226
1987096S11144 1987 26 SI WA KAY 1987-04-16 18:00:00 TS -19.1015 109.055 25 999 bom main 598 598 O_____O___P_O_ jtwc_sh SH231987 -19.2000 109.200 35 0 -18.8000 108.800 20 25 999 2.00000 118 3 -19.2061 109.019 2 32 -19.2000 109.200 TC 35 45 45 11 234
1987096S11144 1987 26 SI WA KAY 1987-04-16 21:00:00 TS -19.4011 108.532 main 636 636 P_____P___P_P_ SH231987 -19.5581 108.691 32 -1 -18.9281 108.185 20 25 1000 139 -19.5604 108.562 2 31 -19.5581 108.691 TC 32 12 241
1987096S11144 1987 26 SI WA KAY 1987-04-17 00:00:00 TS -19.6750 107.950 25 1002 bom main 664 O_____O___O_O_ jtwc_sh SH231987 -19.9000 108.100 30 -1 -19.0000 107.500 20 25 1002 2.00000 161 3 -19.9000 108.100 1 30 -19.9000 108.100 TC 30 45 45 12 243

デジタル台風データ・検索

IBTrACS Databaseについて

本データベースは、米国NOAAが公開する1842年以降の世界の熱帯低気圧のベストトラックデータアーカイブInternational Best Track Archive for Climate Stewardship (IBTrACS)を、ウェブで閲覧しやすい形式に変換したものです。

最終更新日:2021-12-03